Time;durP1;ratioP1;P1;durP2;ratioP2;P2;SDS_P1;SDS_P2;PMS_P1;PMS_P2;Temp;Humidity;BMP_temperature;BMP_pressure;BME280_temperature;BME280_humidity;BME280_pressure;Samples;Min_cycle;Max_cycle;Signal;HPM_P1;HPM_P2
2020/12/13 00:01:18;;;;;;;35.47;19.73;;;;;;;6.94;70.27;98838.81;4404585;28;20126;-93
2020/12/13 00:04:10;;;;;;;34.35;18.52;;;;;;;6.98;69.90;98842.81;4155322;34;33619;-96
2020/12/13 00:07:03;;;;;;;34.80;19.42;;;;;;;6.60;70.51;98841.03;4228514;28;34386;-93
2020/12/13 00:14:08;;;;;;;42.47;20.20;;;;;;;6.32;72.10;98838.94;4188293;34;20175;-92
2020/12/13 00:16:41;;;;;;;42.58;19.77;;;;;;;6.02;73.42;98843.41;4191838;34;34182;-93
2020/12/13 00:19:13;;;;;;;47.22;21.62;;;;;;;6.34;72.17;98846.81;4187502;34;34489;-93
2020/12/13 00:21:53;;;;;;;50.15;21.42;;;;;;;5.57;74.74;98851.22;4194188;34;34703;-94
2020/12/13 00:24:25;;;;;;;54.33;21.37;;;;;;;6.14;73.36;98852.69;4207128;34;33108;-93
2020/12/13 00:26:58;;;;;;;46.92;20.25;;;;;;;6.37;72.61;98857.19;4191813;34;34122;-92
2020/12/13 00:29:31;;;;;;;46.60;22.55;;;;;;;6.07;73.56;98850.91;4168710;34;34226;-93
2020/12/13 00:32:04;;;;;;;49.53;21.62;;;;;;;5.92;73.73;98837.41;4270989;29;32829;-90
2020/12/13 00:34:36;;;;;;;46.63;19.75;;;;;;;6.11;73.05;98842.31;4209368;34;33441;-92
2020/12/13 00:37:09;;;;;;;40.42;19.23;;;;;;;6.03;72.76;98849.59;4207343;33;32815;-91
2020/12/13 00:39:41;;;;;;;42.60;21.08;;;;;;;5.88;73.67;98852.19;4217935;33;34360;-93
2020/12/13 00:45:34;;;;;;;47.05;22.37;;;;;;;6.06;72.75;98851.91;4208316;33;32241;-96
2020/12/13 00:48:23;;;;;;;44.25;22.23;;;;;;;5.33;75.57;98849.53;4172242;34;31745;-92
2020/12/13 00:50:55;;;;;;;44.17;22.37;;;;;;;5.70;74.07;98861.34;4190658;34;34560;-96
2020/12/13 00:53:43;;;;;;;48.28;23.70;;;;;;;5.83;73.87;98861.59;4194121;34;34614;-95
2020/12/13 00:56:35;;;;;;;45.20;23.05;;;;;;;5.80;73.45;98859.28;4185319;34;32134;-96
2020/12/13 00:59:20;;;;;;;50.10;24.27;;;;;;;5.90;73.00;98851.00;4184270;34;33637;-93
2020/12/13 01:01:52;;;;;;;46.08;23.50;;;;;;;5.98;72.84;98852.81;4202924;33;33570;-93
2020/12/13 01:04:25;;;;;;;45.70;22.00;;;;;;;5.95;72.88;98858.50;4225887;33;34519;-93
2020/12/13 01:07:01;;;;;;;42.33;20.37;;;;;;;5.87;72.92;98850.50;4211899;33;34534;-93
2020/12/13 01:09:37;;;;;;;42.97;21.70;;;;;;;5.59;74.03;98849.19;4225644;33;33258;-96
2020/12/13 01:12:10;;;;;;;42.70;20.20;;;;;;;5.65;73.92;98855.69;4192424;34;34205;-93
2020/12/13 01:14:43;;;;;;;47.13;21.15;;;;;;;5.59;74.11;98856.41;4208701;34;35753;-93
2020/12/13 01:17:15;;;;;;;45.45;21.95;;;;;;;5.12;75.71;98855.50;4202476;33;34188;-93
2020/12/13 01:19:47;;;;;;;54.22;22.92;;;;;;;5.00;76.24;98854.19;4210619;33;33427;-93
2020/12/13 01:22:23;;;;;;;48.25;20.75;;;;;;;5.07;76.38;98858.66;4303541;28;34763;-96
2020/12/13 01:25:33;;;;;;;48.08;22.92;;;;;;;5.02;76.07;98860.22;4293590;28;33953;31
2020/12/13 01:28:05;;;;;;;53.25;24.45;;;;;;;5.13;75.75;98859.81;4174178;34;33878;-93
2020/12/13 01:30:38;;;;;;;46.22;20.98;;;;;;;5.13;75.90;98860.66;4349454;28;34889;-94
2020/12/13 01:33:38;;;;;;;43.40;20.42;;;;;;;5.06;76.30;98866.88;4319292;28;20170;-91
2020/12/13 01:39:32;;;;;;;42.53;20.58;;;;;;;5.21;75.71;98869.66;4194153;34;33695;-93
2020/12/13 01:42:34;;;;;;;44.75;21.27;;;;;;;4.98;76.40;98872.28;4217702;28;34435;-92
2020/12/13 01:45:21;;;;;;;40.55;18.60;;;;;;;5.08;76.03;98872.91;4225963;28;34065;31
2020/12/13 01:48:38;;;;;;;40.75;19.17;;;;;;;4.83;76.95;98880.19;4263950;28;20107;-96
2020/12/13 01:52:37;;;;;;;36.47;18.35;;;;;;;4.87;76.85;98884.19;4144149;34;33894;-93
2020/12/13 01:54:48;;;;;;;36.03;17.87;;;;;;;4.69;77.35;98885.22;4210911;28;33961;-93
2020/12/13 01:57:20;;;;;;;38.60;18.65;;;;;;;5.01;76.30;98890.66;4195431;34;33693;-91
2020/12/13 01:59:54;;;;;;;43.25;21.15;;;;;;;5.07;76.19;98884.62;4191373;34;33753;-96
2020/12/13 02:02:31;;;;;;;37.30;20.37;;;;;;;5.22;75.58;98898.13;4182552;34;32473;-92
2020/12/13 02:05:04;;;;;;;49.15;21.08;;;;;;;5.49;74.54;98886.09;4191854;34;33992;-96
2020/12/13 02:07:37;;;;;;;37.50;18.87;;;;;;;5.39;74.74;98894.38;4182148;34;32596;-96
2020/12/13 02:10:25;;;;;;;40.60;17.95;;;;;;;5.30;74.68;98892.75;4110073;34;35273;-92
2020/12/13 02:12:58;;;;;;;49.67;21.58;;;;;;;5.10;75.34;98889.63;4099833;34;32548;-96
2020/12/13 02:15:43;;;;;;;45.78;19.37;;;;;;;4.91;76.10;98882.81;4137010;34;32083;-91
2020/12/13 02:18:15;;;;;;;43.30;19.92;;;;;;;4.70;76.55;98900.28;4175362;34;35337;-96
2020/12/13 02:21:01;;;;;;;37.65;19.15;;;;;;;4.52;77.83;98900.50;4190940;34;34183;-96
2020/12/13 02:23:34;;;;;;;41.28;19.55;;;;;;;4.58;77.13;98898.94;4184294;34;33953;-92
2020/12/13 02:26:11;;;;;;;44.30;20.52;;;;;;;4.76;76.94;98899.59;4195135;34;35193;-92
2020/12/13 02:28:44;;;;;;;43.83;19.83;;;;;;;4.73;76.67;98902.63;4192230;34;34335;-92
2020/12/13 02:31:16;;;;;;;42.40;19.62;;;;;;;4.72;76.13;98895.59;4181048;34;34824;-96
2020/12/13 02:33:50;;;;;;;40.35;20.20;;;;;;;4.94;75.63;98903.94;4183373;34;34370;-92
2020/12/13 02:36:22;;;;;;;33.17;19.30;;;;;;;4.62;76.75;98897.63;4210393;34;33878;-92
2020/12/13 02:38:54;;;;;;;39.72;19.80;;;;;;;4.92;75.18;98897.88;4193927;34;33916;-96
2020/12/13 02:41:42;;;;;;;36.15;19.73;;;;;;;4.63;76.72;98893.94;4185135;34;32931;-96
2020/12/13 02:44:14;;;;;;;43.17;19.85;;;;;;;4.50;76.80;98890.94;4190235;34;32467;-96
2020/12/13 02:46:59;;;;;;;36.22;20.77;;;;;;;4.49;76.87;98895.47;4155351;34;32087;-96
2020/12/13 02:49:33;;;;;;;40.47;22.80;;;;;;;4.45;77.34;98894.13;4137870;34;34079;-96
2020/12/13 02:52:18;;;;;;;37.08;20.10;;;;;;;4.70;76.28;98892.25;4153948;34;32894;-92
2020/12/13 02:54:50;;;;;;;33.72;19.00;;;;;;;4.49;76.77;98897.28;4175034;34;34098;-96
2020/12/13 02:57:40;;;;;;;42.33;20.50;;;;;;;4.38;77.11;98893.94;4165270;34;33970;-96
2020/12/13 03:00:12;;;;;;;37.97;21.17;;;;;;;4.17;77.98;98890.97;4191326;34;34053;-92
2020/12/13 03:02:45;;;;;;;36.03;19.48;;;;;;;4.02;78.53;98899.62;4180182;34;34448;-96
2020/12/13 03:05:17;;;;;;;36.90;20.17;;;;;;;4.22;77.50;98891.28;4198960;34;32651;-96
2020/12/13 03:08:05;;;;;;;37.03;19.42;;;;;;;4.45;76.76;98894.13;4190071;34;32710;-96
2020/12/13 03:10:37;;;;;;;37.15;21.08;;;;;;;4.55;76.54;98891.25;4187859;34;35784;-94
2020/12/13 03:13:12;;;;;;;37.92;20.05;;;;;;;4.17;77.67;98886.44;4194956;34;34730;-95
2020/12/13 03:15:44;;;;;;;38.97;21.08;;;;;;;4.45;76.63;98894.13;4206173;34;34100;-92
2020/12/13 03:18:17;;;;;;;36.95;20.65;;;;;;;4.44;76.93;98896.97;4206981;34;33397;-92
2020/12/13 03:20:49;;;;;;;41.03;22.25;;;;;;;4.23;77.59;98904.50;4216331;34;34458;-94
2020/12/13 03:23:34;;;;;;;39.50;21.30;;;;;;;4.03;78.14;98901.31;4176396;34;33205;-92
2020/12/13 03:26:06;;;;;;;41.20;21.50;;;;;;;4.21;77.84;98909.19;4175134;34;34229;-93
2020/12/13 03:28:55;;;;;;;35.63;19.87;;;;;;;4.34;77.31;98914.03;4206876;34;33235;-96
2020/12/13 03:31:45;;;;;;;38.33;19.98;;;;;;;4.19;77.87;98915.69;4204166;34;36718;-92
2020/12/13 03:34:28;;;;;;;45.40;22.92;;;;;;;4.50;76.30;98917.72;4203037;34;33545;-96
2020/12/13 03:37:17;;;;;;;38.00;19.95;;;;;;;4.41;77.01;98925.72;4213302;34;32532;-92
2020/12/13 03:39:49;;;;;;;32.88;18.58;;;;;;;4.12;78.14;98925.41;4198744;33;33581;-96
2020/12/13 03:42:21;;;;;;;39.10;19.45;;;;;;;4.36;76.83;98924.59;4212288;33;32588;-91
2020/12/13 03:44:54;;;;;;;33.88;18.70;;;;;;;4.29;77.00;98932.41;4209682;34;33607;-91
2020/12/13 03:47:26;;;;;;;32.40;19.15;;;;;;;4.24;77.40;98929.44;4193911;34;34747;-94
2020/12/13 03:50:05;;;;;;;34.17;18.08;;;;;;;4.36;76.17;98938.78;4012094;34;34593;-96
2020/12/13 03:52:37;;;;;;;40.60;21.15;;;;;;;4.10;77.71;98938.91;4184928;34;33352;-96
2020/12/13 03:55:22;;;;;;;34.95;19.12;;;;;;;3.97;77.80;98939.41;4189397;34;32188;-96
2020/12/13 03:57:55;;;;;;;34.47;19.02;;;;;;;4.32;76.90;98939.28;4217719;33;34342;-96
2020/12/13 04:00:43;;;;;;;28.50;16.30;;;;;;;4.26;76.85;98942.63;4182936;34;34908;-92
2020/12/13 04:03:15;;;;;;;30.23;16.15;;;;;;;4.35;76.02;98942.44;4195899;34;33952;-96
2020/12/13 04:05:48;;;;;;;30.95;18.15;;;;;;;4.31;75.87;98941.13;4198698;34;33761;-92
2020/12/13 04:08:20;;;;;;;26.45;14.85;;;;;;;4.07;77.74;98941.94;4217896;34;34529;-92
2020/12/13 04:10:54;;;;;;;26.48;14.60;;;;;;;4.33;76.08;98939.13;4220601;34;33931;-96
2020/12/13 04:13:41;;;;;;;25.50;13.65;;;;;;;4.19;76.54;98947.78;4180438;34;35188;-93
2020/12/13 04:16:13;;;;;;;23.30;14.35;;;;;;;4.47;75.21;98945.62;4225169;33;34543;-96
2020/12/13 04:19:01;;;;;;;23.33;13.38;;;;;;;4.10;76.78;98948.78;4185189;34;35313;-96
2020/12/13 04:21:51;;;;;;;23.55;13.50;;;;;;;3.99;77.06;98948.09;4164150;34;33011;-96
2020/12/13 04:24:39;;;;;;;23.30;12.93;;;;;;;4.05;76.61;98951.97;4179874;34;34250;-93
2020/12/13 04:27:11;;;;;;;22.73;14.50;;;;;;;4.19;75.69;98956.66;4162803;34;34195;-92
2020/12/13 04:29:44;;;;;;;24.50;12.63;;;;;;;4.41;74.70;98946.31;4180008;34;34349;-96
2020/12/13 04:32:28;;;;;;;23.87;13.02;;;;;;;4.07;76.00;98955.28;4161983;34;33533;-92
2020/12/13 04:35:02;;;;;;;23.98;12.90;;;;;;;3.99;76.22;98942.75;4180866;34;33893;-96
2020/12/13 04:37:53;;;;;;;24.73;14.23;;;;;;;4.00;76.30;98947.09;4173169;34;32612;-96
2020/12/13 04:40:25;;;;;;;23.27;13.27;;;;;;;3.92;76.51;98952.44;4198004;34;33425;-93
2020/12/13 04:42:59;;;;;;;19.52;11.68;;;;;;;3.72;77.54;98949.22;4216540;33;34194;-92
2020/12/13 04:45:33;;;;;;;24.55;13.20;;;;;;;4.04;76.04;98956.47;4219101;34;34579;-92
2020/12/13 04:48:08;;;;;;;25.25;13.95;;;;;;;3.67;77.70;98960.41;4246708;28;34367;-96
2020/12/13 04:50:42;;;;;;;22.37;11.88;;;;;;;3.84;77.11;98955.09;4215870;33;33406;-95
2020/12/13 04:53:57;;;;;;;22.40;11.68;;;;;;;3.85;76.95;98957.59;4247644;33;33950;-92
2020/12/13 04:56:33;;;;;;;21.80;11.68;;;;;;;3.92;76.96;98967.66;4244145;28;33697;-93
2020/12/13 04:59:25;;;;;;;18.33;10.48;;;;;;;3.99;76.37;98961.47;4224456;33;32886;-92
2020/12/13 05:02:01;;;;;;;21.80;13.45;;;;;;;3.74;77.20;98971.25;4238519;28;34285;-96
2020/12/13 05:04:48;;;;;;;18.70;10.95;;;;;;;3.84;77.29;98957.78;4269436;28;33656;-93
2020/12/13 05:07:22;;;;;;;19.15;9.85;;;;;;;3.60;78.35;98966.56;4280441;28;35107;-93
2020/12/13 05:09:59;;;;;;;20.30;11.63;;;;;;;3.98;76.49;98967.84;4307201;28;34328;-96
2020/12/13 05:12:58;;;;;;;19.17;9.82;;;;;;;4.15;76.40;98968.69;4092015;34;36066;-95
2020/12/13 05:15:36;;;;;;;17.17;9.57;;;;;;;3.98;76.27;98958.97;4189873;34;33353;-95
2020/12/13 05:18:09;;;;;;;15.85;9.85;;;;;;;3.72;77.07;98963.41;4218772;28;32448;-93
2020/12/13 05:20:43;;;;;;;17.17;8.90;;;;;;;4.04;76.22;98969.84;4269767;28;34068;-93
2020/12/13 05:23:18;;;;;;;20.05;10.88;;;;;;;3.84;76.41;98969.28;4203781;33;35224;-94
2020/12/13 05:25:51;;;;;;;15.32;9.45;;;;;;;3.69;77.78;98969.06;4225732;28;32692;-93
2020/12/13 05:28:55;;;;;;;16.98;10.90;;;;;;;3.87;76.82;98966.28;4223662;33;34180;-96
2020/12/13 05:35:16;;;;;;;13.88;8.43;;;;;;;3.98;76.32;98980.34;4308602;28;33435;-94
2020/12/13 05:37:50;;;;;;;17.48;8.65;;;;;;;3.82;76.70;98979.31;4304168;28;33612;-92
2020/12/13 05:40:23;;;;;;;15.70;8.40;;;;;;;3.88;76.44;98985.84;4206673;34;34380;-93
2020/12/13 05:43:05;;;;;;;14.27;7.60;;;;;;;3.65;77.37;98981.13;4198007;33;35246;-93
2020/12/13 05:51:40;;;;;;;17.10;10.13;;;;;;;3.82;76.56;98989.19;4207807;33;34330;-93
2020/12/13 05:54:22;;;;;;;19.67;10.75;;;;;;;3.83;76.88;98985.50;4240864;28;33975;-94
2020/12/13 05:56:59;;;;;;;13.70;8.52;;;;;;;3.72;77.51;98979.44;4213143;33;34464;-93
2020/12/13 05:59:35;;;;;;;16.10;9.95;;;;;;;3.88;76.82;98973.31;4213856;33;32773;-96
2020/12/13 06:02:14;;;;;;;20.30;10.38;;;;;;;3.84;76.64;98987.19;4222700;33;34008;-93
2020/12/13 06:05:16;;;;;;;18.75;10.88;;;;;;;3.69;77.43;98978.94;4210964;33;35302;-96
2020/12/13 06:08:14;;;;;;;18.87;10.27;;;;;;;3.65;77.28;98991.81;4239021;33;20130;-96
2020/12/13 06:10:50;;;;;;;21.50;11.35;;;;;;;3.46;78.55;98994.72;4254035;28;34980;-95
2020/12/13 06:13:30;;;;;;;20.10;11.38;;;;;;;3.72;77.94;98991.97;4224724;33;35654;-96
2020/12/13 06:16:16;;;;;;;18.35;11.75;;;;;;;4.05;76.41;98987.56;4193937;33;33061;-92
2020/12/13 06:19:02;;;;;;;23.27;11.63;;;;;;;3.58;77.82;98988.09;4213217;34;32631;-92
2020/12/13 06:21:35;;;;;;;24.65;13.40;;;;;;;3.66;77.87;98990.78;4206696;34;34938;-94
2020/12/13 06:24:08;;;;;;;27.45;15.27;;;;;;;3.84;77.17;98997.88;4189276;33;34900;-93
2020/12/13 06:26:42;;;;;;;23.55;12.48;;;;;;;3.63;78.12;99007.12;4209132;33;35324;-92
2020/12/13 06:29:15;;;;;;;27.67;15.02;;;;;;;3.45;78.58;98993.88;4222093;33;33837;-96
2020/12/13 06:32:02;;;;;;;22.05;12.82;;;;;;;3.72;78.23;98994.66;4192730;34;32796;-95
2020/12/13 06:34:34;;;;;;;30.95;14.85;;;;;;;3.48;78.59;98992.72;4195651;34;32471;-94
2020/12/13 06:37:08;;;;;;;30.17;16.33;;;;;;;3.44;79.19;99007.38;4215192;34;35216;-94
2020/12/13 06:39:41;;;;;;;24.40;14.32;;;;;;;3.55;79.11;99007.12;4192118;34;33985;-94
2020/12/13 06:42:32;;;;;;;28.37;14.40;;;;;;;3.96;77.55;99009.09;4188796;34;33421;-95
2020/12/13 06:45:09;;;;;;;19.45;11.48;;;;;;;3.96;77.20;99007.25;4217728;33;32665;-94
2020/12/13 06:48:35;;;;;;;17.40;10.20;;;;;;;3.94;76.78;99013.75;4157115;34;34038;-95
2020/12/13 06:51:09;;;;;;;20.98;11.02;;;;;;;3.72;77.05;99010.69;4182515;34;33812;-95
2020/12/13 06:53:54;;;;;;;16.80;10.02;;;;;;;3.43;78.72;99016.38;4196291;34;33629;-96
2020/12/13 06:56:27;;;;;;;18.15;10.60;;;;;;;3.71;77.69;99025.91;4200777;34;34656;-94
2020/12/13 06:59:18;;;;;;;13.65;8.88;;;;;;;3.69;77.65;99022.53;4245687;33;35283;-90
2020/12/13 07:01:50;;;;;;;16.60;10.40;;;;;;;3.84;77.02;99043.31;4232059;33;35139;-96
2020/12/13 07:04:37;;;;;;;17.65;10.07;;;;;;;4.00;76.27;99040.69;4198216;34;32180;-91
2020/12/13 07:07:15;;;;;;;16.30;9.90;;;;;;;3.94;76.65;99040.50;4206515;34;36992;-96
2020/12/13 07:09:53;;;;;;;18.62;9.90;;;;;;;3.92;76.51;99043.34;4205779;34;34642;-96
2020/12/13 07:13:25;;;;;;;15.05;10.15;;;;;;;3.92;76.40;99038.00;4672988;28;20079;31
2020/12/13 07:16:31;;;;;;;14.38;9.40;;;;;;;4.16;75.64;99045.28;4543102;28;31121;-96
2020/12/13 07:19:09;;;;;;;18.30;10.70;;;;;;;3.99;76.59;99047.03;4267668;28;34631;-96
2020/12/13 07:21:44;;;;;;;17.95;10.45;;;;;;;4.00;76.18;99046.06;4218613;33;33802;-96
2020/12/13 07:24:43;;;;;;;16.95;10.32;;;;;;;4.30;74.91;99046.47;4279898;28;32291;-96
2020/12/13 07:27:28;;;;;;;18.87;10.63;;;;;;;4.19;75.69;99049.44;4171471;34;32499;-91
2020/12/13 07:30:12;;;;;;;21.12;12.15;;;;;;;3.92;77.04;99054.03;4287141;28;34482;-96
2020/12/13 07:33:23;;;;;;;19.75;11.10;;;;;;;4.04;76.19;99062.59;4252351;28;32895;31
2020/12/13 07:35:58;;;;;;;23.20;12.50;;;;;;;4.42;75.06;99050.50;4438008;28;32308;-93
2020/12/13 07:39:12;;;;;;;23.15;12.05;;;;;;;4.15;75.97;99064.97;1208546;28;33935;-90
2020/12/13 07:41:48;;;;;;;24.90;13.40;;;;;;;4.31;75.21;99072.22;4320742;28;31256;-96
2020/12/13 07:44:41;;;;;;;23.35;13.60;;;;;;;4.30;75.28;99073.22;4228652;33;33935;-95
2020/12/13 07:47:20;;;;;;;25.10;13.90;;;;;;;3.81;77.14;99073.88;4206263;34;34403;-96
2020/12/13 07:50:08;;;;;;;24.20;14.10;;;;;;;4.21;76.17;99074.22;4222415;33;32422;-96
2020/12/13 07:52:44;;;;;;;25.98;13.73;;;;;;;4.01;76.78;99074.47;4219490;33;32987;-96
2020/12/13 07:55:32;;;;;;;24.92;14.48;;;;;;;4.39;75.37;99082.94;4200197;34;32593;-95
2020/12/13 07:58:04;;;;;;;29.20;15.80;;;;;;;3.96;76.75;99081.31;4191423;34;34183;-92
2020/12/13 08:01:10;;;;;;;27.10;15.02;;;;;;;4.10;76.22;99082.50;4219272;33;33633;-94
2020/12/13 08:03:46;;;;;;;25.15;14.30;;;;;;;3.87;76.94;99077.75;4207730;33;33650;-94
2020/12/13 08:06:18;;;;;;;30.35;15.95;;;;;;;4.28;75.46;99080.59;4209996;34;35247;-92
2020/12/13 08:08:51;;;;;;;29.40;15.75;;;;;;;4.09;76.84;99080.84;4215521;33;33828;-93
2020/12/13 08:11:24;;;;;;;26.92;14.77;;;;;;;4.32;75.53;99083.75;4198418;33;32380;-91
2020/12/13 08:14:04;;;;;;;27.25;15.32;;;;;;;4.23;75.32;99088.25;4191403;33;34317;-93
2020/12/13 08:17:15;;;;;;;25.42;14.87;;;;;;;4.18;76.66;99090.59;4226072;33;33555;-96
2020/12/13 08:20:38;;;;;;;29.15;14.45;;;;;;;4.52;74.71;99081.63;4539872;28;20105;31
2020/12/13 08:23:40;;;;;;;25.25;13.23;;;;;;;4.35;75.66;99096.81;4453826;28;32727;-95
2020/12/13 08:26:46;;;;;;;26.23;14.18;;;;;;;3.89;76.70;99098.00;4192744;34;20158;-96
2020/12/13 08:29:44;;;;;;;26.37;15.20;;;;;;;3.70;77.25;99103.56;4184372;34;20151;-96
2020/12/13 08:32:21;;;;;;;31.73;17.23;;;;;;;3.91;76.61;99113.00;4165628;34;34778;-92
2020/12/13 08:35:20;;;;;;;26.60;16.58;;;;;;;3.89;76.81;99115.84;4173067;34;32580;-92
2020/12/13 08:38:03;;;;;;;29.08;16.27;;;;;;;3.84;77.27;99120.84;4170753;34;34484;-92
2020/12/13 08:41:05;;;;;;;27.50;16.35;;;;;;;3.77;77.84;99122.47;4428339;28;34409;31
2020/12/13 08:43:54;;;;;;;30.37;18.15;;;;;;;4.25;76.08;99137.06;4167517;34;33027;-93
2020/12/13 08:46:48;;;;;;;27.73;16.17;;;;;;;4.20;76.32;99142.91;4158666;34;34851;-92
2020/12/13 08:49:45;;;;;;;27.25;17.37;;;;;;;4.35;76.20;99135.09;4132403;34;33494;-92
2020/12/13 08:52:21;;;;;;;28.17;16.80;;;;;;;4.39;75.22;99144.47;4154666;34;35606;-96
2020/12/13 08:55:10;;;;;;;28.05;15.27;;;;;;;4.13;76.12;99151.72;4188562;34;34049;-96
2020/12/13 08:57:45;;;;;;;29.58;17.20;;;;;;;4.30;75.36;99153.47;4193501;34;33932;-93
2020/12/13 09:01:06;;;;;;;33.47;18.37;;;;;;;4.45;75.70;99156.38;4192824;34;34206;-95
2020/12/13 09:03:38;;;;;;;28.40;17.65;;;;;;;4.32;75.44;99156.81;4193520;34;34472;-92
2020/12/13 09:06:11;;;;;;;32.08;17.10;;;;;;;4.58;74.43;99155.91;4194517;34;34330;-91
2020/12/13 09:08:44;;;;;;;27.55;17.10;;;;;;;4.38;75.10;99164.19;4191470;34;33041;-92
2020/12/13 09:11:30;;;;;;;33.78;17.12;;;;;;;4.41;74.79;99160.38;4189608;34;34644;-95
2020/12/13 09:14:03;;;;;;;30.15;17.65;;;;;;;4.11;75.49;99165.25;4201101;34;34575;-91
2020/12/13 09:16:36;;;;;;;32.67;17.45;;;;;;;3.79;76.80;99171.28;4201739;34;34975;-92
2020/12/13 09:19:10;;;;;;;32.72;18.10;;;;;;;3.99;76.38;99169.22;4193278;34;33977;-95
2020/12/13 09:21:48;;;;;;;28.62;17.15;;;;;;;4.03;76.50;99166.06;4180505;34;32797;-96
2020/12/13 09:24:22;;;;;;;33.28;17.08;;;;;;;4.36;75.11;99162.72;4181484;34;32854;-96
2020/12/13 09:27:18;;;;;;;31.87;17.65;;;;;;;3.96;76.07;99162.34;4201774;34;33652;-94
2020/12/13 09:29:51;;;;;;;31.65;16.80;;;;;;;3.86;76.48;99162.47;4214132;34;32047;-94
2020/12/13 09:32:38;;;;;;;32.92;17.62;;;;;;;3.89;77.23;99164.84;4204550;33;36859;-93
2020/12/13 09:35:10;;;;;;;28.17;17.27;;;;;;;3.88;76.64;99165.81;4210041;33;34294;-92
2020/12/13 09:37:42;;;;;;;30.05;16.67;;;;;;;3.82;76.71;99161.09;4221755;33;33949;-94
2020/12/13 09:40:20;;;;;;;29.00;16.08;;;;;;;3.77;76.65;99162.56;4245273;33;34098;-95
2020/12/13 09:43:00;;;;;;;27.73;15.85;;;;;;;4.04;76.52;99165.06;4196022;34;33841;-96
2020/12/13 09:45:32;;;;;;;28.50;16.73;;;;;;;4.02;75.83;99164.38;4202240;33;32734;-91
2020/12/13 09:48:05;;;;;;;29.20;16.75;;;;;;;3.87;77.32;99168.66;4232296;33;34317;-96
2020/12/13 09:50:37;;;;;;;29.12;16.42;;;;;;;4.12;75.89;99166.94;4198093;33;32451;-96
2020/12/13 09:53:10;;;;;;;30.05;16.77;;;;;;;3.99;76.08;99171.91;4220960;33;35360;-90
2020/12/13 09:55:42;;;;;;;29.45;17.92;;;;;;;3.87;77.15;99165.97;4231234;33;33784;-93
2020/12/13 09:58:14;;;;;;;31.23;17.70;;;;;;;4.26;76.42;99170.84;4194607;34;34396;-90
2020/12/13 10:00:47;;;;;;;29.48;17.23;;;;;;;4.46;75.50;99167.91;4200281;33;34192;-92
2020/12/13 10:03:19;;;;;;;30.35;16.33;;;;;;;4.35;75.46;99164.53;4218379;33;35070;-94
2020/12/13 10:06:14;;;;;;;31.52;17.02;;;;;;;4.31;75.76;99160.53;4217397;33;32772;-94
2020/12/13 10:11:36;;;;;;;25.75;16.12;;;;;;;4.03;75.89;99158.03;4214898;33;33804;-92
2020/12/13 10:14:32;;;;;;;32.97;17.02;;;;;;;4.21;76.01;99157.97;4162502;34;34361;-94
2020/12/13 10:17:04;;;;;;;27.60;16.35;;;;;;;4.38;75.21;99164.19;4139632;34;34480;-93
2020/12/13 10:19:38;;;;;;;26.58;17.12;;;;;;;4.27;75.82;99164.50;4166162;34;34575;-96
2020/12/13 10:22:25;;;;;;;25.65;16.33;;;;;;;4.87;74.25;99165.34;4178926;28;32101;-96
2020/12/13 10:25:02;;;;;;;31.25;17.37;;;;;;;4.81;73.87;99161.50;4208015;33;34248;-94
2020/12/13 10:27:35;;;;;;;29.80;17.62;;;;;;;4.50;74.12;99154.03;4233869;33;33782;-94
2020/12/13 10:30:08;;;;;;;27.77;16.50;;;;;;;4.46;75.79;99150.03;4221865;33;34067;-93
2020/12/13 10:32:41;;;;;;;29.23;16.70;;;;;;;4.77;74.52;99150.28;4213843;34;32702;-95
2020/12/13 10:35:13;;;;;;;30.33;17.00;;;;;;;4.87;73.95;99149.28;4210442;34;33914;-90
2020/12/13 10:37:46;;;;;;;28.48;16.83;;;;;;;4.80;74.11;99148.28;4194082;34;33602;-91
2020/12/13 10:40:34;;;;;;;27.83;17.08;;;;;;;4.60;75.02;99154.75;4212313;33;35061;-96
2020/12/13 10:43:08;;;;;;;32.42;17.62;;;;;;;4.49;75.07;99149.72;4223789;33;34120;-93
2020/12/13 10:46:40;;;;;;;32.90;17.58;;;;;;;4.45;76.08;99155.56;4212276;33;34494;-96
2020/12/13 10:49:13;;;;;;;30.98;17.15;;;;;;;4.58;74.75;99156.75;4232262;33;33385;-90
2020/12/13 10:51:46;;;;;;;28.65;17.62;;;;;;;4.59;75.10;99160.25;4216156;33;33639;-93
2020/12/13 10:54:18;;;;;;;29.63;17.48;;;;;;;4.15;75.87;99157.78;4209660;33;33660;-90
2020/12/13 10:56:53;;;;;;;28.70;16.17;;;;;;;4.46;74.71;99162.56;4219837;33;34600;-92
2020/12/13 10:59:25;;;;;;;33.50;17.75;;;;;;;4.34;75.68;99154.84;4216514;33;34720;-89
2020/12/13 11:02:00;;;;;;;28.35;16.20;;;;;;;4.65;74.54;99167.63;4219461;33;33921;-96
2020/12/13 11:04:33;;;;;;;27.13;15.32;;;;;;;4.10;75.75;99165.44;4206850;33;32439;-91
2020/12/13 11:07:25;;;;;;;30.77;16.77;;;;;;;4.28;75.39;99166.19;4214322;34;34814;-92
2020/12/13 11:09:58;;;;;;;32.63;16.65;;;;;;;4.17;76.13;99166.47;4218195;33;35854;-96
2020/12/13 11:12:32;;;;;;;35.78;18.60;;;;;;;4.34;76.38;99157.53;4205879;34;34298;-94
2020/12/13 11:15:33;;;;;;;34.25;17.62;;;;;;;4.30;76.21;99166.88;4242986;28;20121;-94
2020/12/13 11:18:29;;;;;;;30.55;16.85;;;;;;;4.24;75.28;99162.16;4381131;28;34391;-91
2020/12/13 11:21:03;;;;;;;33.40;17.08;;;;;;;4.24;77.01;99164.84;4248136;33;33801;-89
2020/12/13 11:23:36;;;;;;;32.03;17.83;;;;;;;4.59;75.23;99158.41;4237420;33;33744;-92
2020/12/13 11:26:08;;;;;;;32.78;17.92;;;;;;;4.55;75.79;99162.44;4227311;33;32815;-96
2020/12/13 11:28:57;;;;;;;30.00;16.17;;;;;;;4.58;74.56;99166.59;4236435;33;32964;-93
2020/12/13 11:31:29;;;;;;;26.62;16.27;;;;;;;4.11;76.46;99161.75;4228476;33;34279;-95
2020/12/13 11:34:20;;;;;;;27.87;15.13;;;;;;;4.20;76.62;99163.47;4207036;33;34578;-96
2020/12/13 11:37:11;;;;;;;29.58;15.77;;;;;;;4.66;74.15;99163.97;4184203;34;33857;-95
2020/12/13 11:39:57;;;;;;;31.10;17.80;;;;;;;4.57;74.78;99171.13;4175442;34;32840;-96
2020/12/13 11:42:29;;;;;;;28.40;16.70;;;;;;;4.57;75.06;99173.81;4174330;34;33359;-95
2020/12/13 11:45:15;;;;;;;31.20;17.05;;;;;;;4.50;74.87;99171.94;4201464;33;33060;-90
2020/12/13 11:47:47;;;;;;;29.55;16.55;;;;;;;4.40;74.98;99164.91;4226423;33;35044;-92
2020/12/13 11:50:40;;;;;;;25.52;15.57;;;;;;;3.97;76.53;99168.56;4211458;33;34959;-91
2020/12/13 11:53:15;;;;;;;32.25;17.10;;;;;;;4.04;76.26;99170.44;4204834;33;33869;-94
2020/12/13 11:55:57;;;;;;;25.85;15.40;;;;;;;3.89;77.29;99180.88;4227374;33;33783;-94
2020/12/13 11:58:29;;;;;;;29.77;18.02;;;;;;;3.97;76.84;99173.91;4198645;33;250634;-92
2020/12/13 12:01:05;;;;;;;29.52;17.62;;;;;;;3.91;77.48;99183.38;4208287;33;34489;-94
2020/12/13 12:03:40;;;;;;;33.42;17.77;;;;;;;4.16;76.79;99179.00;4225439;33;34307;-96
2020/12/13 12:06:34;;;;;;;29.63;16.77;;;;;;;4.14;76.75;99181.00;4217933;33;34824;-94
2020/12/13 12:09:10;;;;;;;29.25;16.73;;;;;;;4.27;75.65;99188.59;4210010;33;33731;-93
2020/12/13 12:11:42;;;;;;;29.85;16.92;;;;;;;3.93;77.30;99192.06;4211955;33;34137;-96
2020/12/13 12:15:04;;;;;;;26.12;15.80;;;;;;;4.02;77.25;99188.44;4202702;33;34085;-91
2020/12/13 12:17:37;;;;;;;27.58;15.80;;;;;;;4.11;76.50;99185.84;4196148;33;33062;-93
2020/12/13 12:20:16;;;;;;;27.98;16.20;;;;;;;3.96;76.76;99182.91;4211729;33;34433;-96
2020/12/13 12:22:59;;;;;;;26.42;15.88;;;;;;;4.03;77.43;99175.94;4222641;33;34408;-88
2020/12/13 12:25:35;;;;;;;25.12;13.85;;;;;;;4.09;76.77;99177.97;4210704;33;35490;-91
2020/12/13 12:28:08;;;;;;;27.08;16.75;;;;;;;4.29;75.42;99183.91;4232566;33;33528;-94
2020/12/13 12:30:47;;;;;;;24.92;15.48;;;;;;;4.27;75.94;99185.91;4222967;33;35060;-95
2020/12/13 12:33:35;;;;;;;26.35;15.90;;;;;;;4.03;76.87;99174.09;4194736;33;34948;-92
2020/12/13 12:36:14;;;;;;;24.92;16.50;;;;;;;4.57;75.03;99170.31;4210234;33;34613;-94
2020/12/13 12:38:49;;;;;;;25.20;15.15;;;;;;;4.24;76.53;99170.19;4192584;33;34672;-96
2020/12/13 12:41:33;;;;;;;26.48;15.73;;;;;;;4.54;75.06;99173.31;4189072;34;34471;-95
2020/12/13 12:44:08;;;;;;;24.45;15.60;;;;;;;4.02;77.26;99177.75;4178611;34;34452;-94
2020/12/13 12:46:53;;;;;;;20.58;12.77;;;;;;;4.45;75.85;99182.31;4157796;34;34016;-95
2020/12/13 12:49:25;;;;;;;23.52;14.13;;;;;;;4.54;74.75;99181.34;4158791;34;34277;-95
2020/12/13 12:52:13;;;;;;;23.75;15.80;;;;;;;4.38;74.85;99188.28;4167449;34;34250;-94
2020/12/13 12:54:46;;;;;;;23.83;14.15;;;;;;;3.92;77.46;99179.69;4161227;34;35266;-91